sensor_id;sensor_type;location;lat;lon;timestamp;pressure;altitude;pressure_sealevel;temperature;humidity
15678;BME280;7939;50.814;6.368;2023-05-23T00:01:21;100115.28;;;20.68;61.04
15678;BME280;7939;50.814;6.368;2023-05-23T00:03:49;100112.72;;;20.66;60.93
15678;BME280;7939;50.814;6.368;2023-05-23T00:06:19;100110.97;;;20.67;60.73
15678;BME280;7939;50.814;6.368;2023-05-23T00:08:46;100110.19;;;20.65;60.94
15678;BME280;7939;50.814;6.368;2023-05-23T00:11:13;100105.91;;;20.64;60.89
15678;BME280;7939;50.814;6.368;2023-05-23T00:13:40;100109.41;;;20.63;60.89
15678;BME280;7939;50.814;6.368;2023-05-23T00:16:08;100112.00;;;20.63;60.72
15678;BME280;7939;50.814;6.368;2023-05-23T00:18:35;100108.56;;;20.62;60.91
15678;BME280;7939;50.814;6.368;2023-05-23T00:21:02;100105.13;;;20.62;60.72
15678;BME280;7939;50.814;6.368;2023-05-23T00:23:28;100103.38;;;20.62;60.70
15678;BME280;7939;50.814;6.368;2023-05-23T00:25:58;100113.00;;;20.59;60.63
15678;BME280;7939;50.814;6.368;2023-05-23T00:28:25;100113.00;;;20.59;60.17
15678;BME280;7939;50.814;6.368;2023-05-23T00:30:52;100113.84;;;20.59;60.58
15678;BME280;7939;50.814;6.368;2023-05-23T00:33:20;100111.31;;;20.58;60.79
15678;BME280;7939;50.814;6.368;2023-05-23T00:35:48;100119.03;;;20.59;60.56
15678;BME280;7939;50.814;6.368;2023-05-23T00:38:15;100115.72;;;20.56;60.73
15678;BME280;7939;50.814;6.368;2023-05-23T00:40:41;100108.78;;;20.56;60.65
15678;BME280;7939;50.814;6.368;2023-05-23T00:43:08;100115.72;;;20.56;60.79
15678;BME280;7939;50.814;6.368;2023-05-23T00:45:35;100115.75;;;20.54;60.71
15678;BME280;7939;50.814;6.368;2023-05-23T00:48:02;100101.94;;;20.54;60.61
15678;BME280;7939;50.814;6.368;2023-05-23T00:50:30;100104.53;;;20.54;60.44
15678;BME280;7939;50.814;6.368;2023-05-23T00:52:59;100098.50;;;20.53;60.48
15678;BME280;7939;50.814;6.368;2023-05-23T00:55:26;100099.41;;;20.52;60.60
15678;BME280;7939;50.814;6.368;2023-05-23T00:57:53;100099.47;;;20.51;60.54
15678;BME280;7939;50.814;6.368;2023-05-23T01:00:22;100102.97;;;20.50;60.77
15678;BME280;7939;50.814;6.368;2023-05-23T01:02:50;100104.72;;;20.49;60.58
15678;BME280;7939;50.814;6.368;2023-05-23T01:05:18;100103.06;;;20.46;60.71
15678;BME280;7939;50.814;6.368;2023-05-23T01:07:48;100110.91;;;20.45;60.86
15678;BME280;7939;50.814;6.368;2023-05-23T01:10:18;100115.28;;;20.43;60.71
15678;BME280;7939;50.814;6.368;2023-05-23T01:12:55;100118.75;;;20.42;60.88
15678;BME280;7939;50.814;6.368;2023-05-23T01:15:28;100121.41;;;20.40;60.86
15678;BME280;7939;50.814;6.368;2023-05-23T01:18:03;100123.16;;;20.40;60.88
15678;BME280;7939;50.814;6.368;2023-05-23T01:20:34;100124.97;;;20.38;60.69
15678;BME280;7939;50.814;6.368;2023-05-23T01:23:31;100123.22;;;20.38;60.79
15678;BME280;7939;50.814;6.368;2023-05-23T01:26:17;100127.59;;;20.36;60.90
15678;BME280;7939;50.814;6.368;2023-05-23T01:28:51;100128.50;;;20.35;60.68
15678;BME280;7939;50.814;6.368;2023-05-23T01:31:21;100132.00;;;20.34;61.02
15678;BME280;7939;50.814;6.368;2023-05-23T01:33:50;100118.25;;;20.32;61.06
15678;BME280;7939;50.814;6.368;2023-05-23T01:36:18;100123.50;;;20.31;60.91
15678;BME280;7939;50.814;6.368;2023-05-23T01:38:45;100121.78;;;20.30;60.55
15678;BME280;7939;50.814;6.368;2023-05-23T01:41:11;100128.91;;;20.25;60.59
15678;BME280;7939;50.814;6.368;2023-05-23T01:43:38;100129.69;;;20.27;60.74
15678;BME280;7939;50.814;6.368;2023-05-23T01:46:06;100128.06;;;20.24;61.02
15678;BME280;7939;50.814;6.368;2023-05-23T01:48:34;100131.50;;;20.25;60.90
15678;BME280;7939;50.814;6.368;2023-05-23T01:51:02;100137.63;;;20.22;60.55
15678;BME280;7939;50.814;6.368;2023-05-23T01:53:29;100138.44;;;20.24;60.60
15678;BME280;7939;50.814;6.368;2023-05-23T01:55:56;100141.03;;;20.24;60.59
15678;BME280;7939;50.814;6.368;2023-05-23T01:58:27;100147.94;;;20.24;60.55
15678;BME280;7939;50.814;6.368;2023-05-23T02:00:54;100146.31;;;20.21;60.79
15678;BME280;7939;50.814;6.368;2023-05-23T02:03:22;100155.00;;;20.20;60.56
15678;BME280;7939;50.814;6.368;2023-05-23T02:05:49;100155.94;;;20.17;60.46
15678;BME280;7939;50.814;6.368;2023-05-23T02:08:16;100157.78;;;20.14;60.53
15678;BME280;7939;50.814;6.368;2023-05-23T02:10:42;100164.69;;;20.15;60.21
15678;BME280;7939;50.814;6.368;2023-05-23T02:13:09;100166.56;;;20.10;60.10
15678;BME280;7939;50.814;6.368;2023-05-23T02:15:35;100180.44;;;20.09;60.33
15678;BME280;7939;50.814;6.368;2023-05-23T02:18:02;100168.44;;;20.06;60.07
15678;BME280;7939;50.814;6.368;2023-05-23T02:20:32;100167.63;;;20.04;60.21
15678;BME280;7939;50.814;6.368;2023-05-23T02:22:58;100172.81;;;20.04;59.99
15678;BME280;7939;50.814;6.368;2023-05-23T02:25:25;100165.06;;;20.03;59.86
15678;BME280;7939;50.814;6.368;2023-05-23T02:27:51;100177.22;;;20.02;59.58
15678;BME280;7939;50.814;6.368;2023-05-23T02:30:18;100172.97;;;20.00;59.62
15678;BME280;7939;50.814;6.368;2023-05-23T02:32:45;100173.13;;;19.95;59.35
15678;BME280;7939;50.814;6.368;2023-05-23T02:35:12;100175.72;;;19.95;59.38
15678;BME280;7939;50.814;6.368;2023-05-23T02:37:40;100175.66;;;19.97;59.12
15678;BME280;7939;50.814;6.368;2023-05-23T02:40:07;100177.47;;;19.94;59.07
15678;BME280;7939;50.814;6.368;2023-05-23T02:42:35;100180.06;;;19.94;59.37
15678;BME280;7939;50.814;6.368;2023-05-23T02:45:01;100180.13;;;19.93;59.27
15678;BME280;7939;50.814;6.368;2023-05-23T02:47:28;100179.22;;;19.94;59.61
15678;BME280;7939;50.814;6.368;2023-05-23T02:49:54;100182.72;;;19.91;59.42
15678;BME280;7939;50.814;6.368;2023-05-23T02:52:21;100176.66;;;19.92;59.60
15678;BME280;7939;50.814;6.368;2023-05-23T02:54:49;100179.22;;;19.94;59.49
15678;BME280;7939;50.814;6.368;2023-05-23T02:57:16;100173.19;;;19.92;59.38
15678;BME280;7939;50.814;6.368;2023-05-23T02:59:42;100178.38;;;19.92;59.43
15678;BME280;7939;50.814;6.368;2023-05-23T03:02:09;100179.25;;;19.92;59.50
15678;BME280;7939;50.814;6.368;2023-05-23T03:04:35;100182.78;;;19.90;59.29
15678;BME280;7939;50.814;6.368;2023-05-23T03:07:03;100184.59;;;19.88;59.74
15678;BME280;7939;50.814;6.368;2023-05-23T03:09:30;100178.59;;;19.86;59.68
15678;BME280;7939;50.814;6.368;2023-05-23T03:11:58;100184.66;;;19.85;60.01
15678;BME280;7939;50.814;6.368;2023-05-23T03:14:25;100190.69;;;19.85;59.75
15678;BME280;7939;50.814;6.368;2023-05-23T03:16:52;100186.47;;;19.83;59.97
15678;BME280;7939;50.814;6.368;2023-05-23T03:19:18;100194.34;;;19.80;59.47
15678;BME280;7939;50.814;6.368;2023-05-23T03:21:45;100200.34;;;19.82;59.97
15678;BME280;7939;50.814;6.368;2023-05-23T03:24:11;100197.81;;;19.80;59.55
15678;BME280;7939;50.814;6.368;2023-05-23T03:26:38;100199.53;;;19.80;59.87
15678;BME280;7939;50.814;6.368;2023-05-23T03:29:06;100207.28;;;19.81;59.80
15678;BME280;7939;50.814;6.368;2023-05-23T03:31:35;100206.44;;;19.81;59.95
15678;BME280;7939;50.814;6.368;2023-05-23T03:34:01;100205.59;;;19.80;59.93
15678;BME280;7939;50.814;6.368;2023-05-23T03:36:30;100210.78;;;19.79;59.91
15678;BME280;7939;50.814;6.368;2023-05-23T03:38:57;100198.78;;;19.76;59.78
15678;BME280;7939;50.814;6.368;2023-05-23T03:41:24;100203.97;;;19.76;59.94
15678;BME280;7939;50.814;6.368;2023-05-23T03:43:51;100210.00;;;19.77;59.63
15678;BME280;7939;50.814;6.368;2023-05-23T03:46:19;100217.78;;;19.77;59.99
15678;BME280;7939;50.814;6.368;2023-05-23T03:48:46;100212.59;;;19.77;59.81
15678;BME280;7939;50.814;6.368;2023-05-23T03:51:12;100219.59;;;19.75;59.99
15678;BME280;7939;50.814;6.368;2023-05-23T03:53:39;100212.72;;;19.74;59.90
15678;BME280;7939;50.814;6.368;2023-05-23T03:56:06;100215.31;;;19.74;59.81
15678;BME280;7939;50.814;6.368;2023-05-23T03:58:32;100220.50;;;19.72;59.57
15678;BME280;7939;50.814;6.368;2023-05-23T04:00:59;100218.81;;;19.71;59.61
15678;BME280;7939;50.814;6.368;2023-05-23T04:03:27;100227.56;;;19.69;59.37
15678;BME280;7939;50.814;6.368;2023-05-23T04:05:57;100225.88;;;19.66;59.50
15678;BME280;7939;50.814;6.368;2023-05-23T04:08:23;100221.72;;;19.62;59.57
15678;BME280;7939;50.814;6.368;2023-05-23T04:10:50;100222.50;;;19.64;59.89
15678;BME280;7939;50.814;6.368;2023-05-23T04:13:17;100232.94;;;19.61;59.77
15678;BME280;7939;50.814;6.368;2023-05-23T04:15:44;100232.16;;;19.59;59.59
15678;BME280;7939;50.814;6.368;2023-05-23T04:18:12;100232.16;;;19.59;59.87
15678;BME280;7939;50.814;6.368;2023-05-23T04:20:40;100241.63;;;19.60;59.55
15678;BME280;7939;50.814;6.368;2023-05-23T04:23:07;100252.13;;;19.55;59.72
15678;BME280;7939;50.814;6.368;2023-05-23T04:25:33;100243.03;;;19.40;60.24
15678;BME280;7939;50.814;6.368;2023-05-23T04:28:00;100250.06;;;19.35;60.48
15678;BME280;7939;50.814;6.368;2023-05-23T04:30:27;100244.88;;;19.37;60.05
15678;BME280;7939;50.814;6.368;2023-05-23T04:32:54;100230.06;;;19.40;60.41
15678;BME280;7939;50.814;6.368;2023-05-23T04:35:22;100225.72;;;19.43;60.27
15678;BME280;7939;50.814;6.368;2023-05-23T04:37:50;100229.09;;;19.45;60.15
15678;BME280;7939;50.814;6.368;2023-05-23T04:40:21;100229.09;;;19.45;60.53
15678;BME280;7939;50.814;6.368;2023-05-23T04:42:47;100231.69;;;19.45;60.12
15678;BME280;7939;50.814;6.368;2023-05-23T04:45:15;100234.28;;;19.45;60.30
15678;BME280;7939;50.814;6.368;2023-05-23T04:47:43;100225.66;;;19.44;60.39
15678;BME280;7939;50.814;6.368;2023-05-23T04:50:13;100225.59;;;19.46;60.08
15678;BME280;7939;50.814;6.368;2023-05-23T04:52:43;100230.78;;;19.46;60.43
15678;BME280;7939;50.814;6.368;2023-05-23T04:55:12;100234.28;;;19.45;60.01
15678;BME280;7939;50.814;6.368;2023-05-23T04:57:42;100241.25;;;19.43;60.03
15678;BME280;7939;50.814;6.368;2023-05-23T05:00:09;100239.47;;;19.45;60.23
15678;BME280;7939;50.814;6.368;2023-05-23T05:02:38;100239.50;;;19.43;60.37
15678;BME280;7939;50.814;6.368;2023-05-23T05:05:05;100236.06;;;19.43;60.39
15678;BME280;7939;50.814;6.368;2023-05-23T05:07:32;100249.06;;;19.41;60.24
15678;BME280;7939;50.814;6.368;2023-05-23T05:09:59;100243.06;;;19.39;60.11
15678;BME280;7939;50.814;6.368;2023-05-23T05:12:27;100234.50;;;19.37;59.98
15678;BME280;7939;50.814;6.368;2023-05-23T05:14:54;100243.97;;;19.38;60.25
15678;BME280;7939;50.814;6.368;2023-05-23T05:17:20;100246.56;;;19.38;60.21
15678;BME280;7939;50.814;6.368;2023-05-23T05:19:47;100249.34;;;19.32;60.34
15678;BME280;7939;50.814;6.368;2023-05-23T05:22:14;100250.97;;;19.36;60.08
15678;BME280;7939;50.814;6.368;2023-05-23T05:24:40;100255.31;;;19.34;60.40
15678;BME280;7939;50.814;6.368;2023-05-23T05:27:07;100256.16;;;19.34;60.47
15678;BME280;7939;50.814;6.368;2023-05-23T05:29:37;100255.44;;;19.29;60.05
15678;BME280;7939;50.814;6.368;2023-05-23T05:32:04;100263.13;;;19.32;60.11
15678;BME280;7939;50.814;6.368;2023-05-23T05:34:33;100254.59;;;19.29;59.81
15678;BME280;7939;50.814;6.368;2023-05-23T05:37:00;100260.72;;;19.26;59.83
15678;BME280;7939;50.814;6.368;2023-05-23T05:39:26;100269.38;;;19.25;60.43
15678;BME280;7939;50.814;6.368;2023-05-23T05:41:53;100265.94;;;19.25;60.45
15678;BME280;7939;50.814;6.368;2023-05-23T05:44:21;100266.91;;;19.21;60.06
15678;BME280;7939;50.814;6.368;2023-05-23T05:46:49;100270.34;;;19.21;60.21
15678;BME280;7939;50.814;6.368;2023-05-23T05:49:15;100275.59;;;19.20;59.82
15678;BME280;7939;50.814;6.368;2023-05-23T05:51:42;100270.31;;;19.23;59.54
15678;BME280;7939;50.814;6.368;2023-05-23T05:54:09;100268.66;;;19.20;59.73
15678;BME280;7939;50.814;6.368;2023-05-23T05:56:36;100280.19;;;19.08;59.95
15678;BME280;7939;50.814;6.368;2023-05-23T05:59:02;100275.81;;;19.10;60.15
15678;BME280;7939;50.814;6.368;2023-05-23T06:01:29;100275.75;;;19.13;60.02
15678;BME280;7939;50.814;6.368;2023-05-23T06:03:58;100288.59;;;19.17;60.33
15678;BME280;7939;50.814;6.368;2023-05-23T06:06:24;100281.72;;;19.17;59.84
15678;BME280;7939;50.814;6.368;2023-05-23T06:08:51;100295.69;;;19.11;60.12
15678;BME280;7939;50.814;6.368;2023-05-23T06:11:18;100289.66;;;19.09;59.87
15678;BME280;7939;50.814;6.368;2023-05-23T06:13:44;100293.94;;;19.12;60.19
15678;BME280;7939;50.814;6.368;2023-05-23T06:16:11;100293.94;;;19.12;59.97
15678;BME280;7939;50.814;6.368;2023-05-23T06:18:37;100296.44;;;19.15;59.76
15678;BME280;7939;50.814;6.368;2023-05-23T06:21:06;100296.44;;;19.15;60.18
15678;BME280;7939;50.814;6.368;2023-05-23T06:23:32;100297.31;;;19.14;60.34
15678;BME280;7939;50.814;6.368;2023-05-23T06:25:59;100299.19;;;19.09;59.72
15678;BME280;7939;50.814;6.368;2023-05-23T06:28:26;100299.22;;;19.07;60.37
15678;BME280;7939;50.814;6.368;2023-05-23T06:30:52;100306.22;;;19.04;60.15
15678;BME280;7939;50.814;6.368;2023-05-23T06:33:19;100310.50;;;19.06;59.95
15678;BME280;7939;50.814;6.368;2023-05-23T06:35:45;100298.78;;;18.92;60.09
15678;BME280;7939;50.814;6.368;2023-05-23T06:38:13;100306.59;;;18.90;60.06
15678;BME280;7939;50.814;6.368;2023-05-23T06:40:40;100306.59;;;18.90;60.44
15678;BME280;7939;50.814;6.368;2023-05-23T06:43:06;100309.22;;;18.89;60.24
15678;BME280;7939;50.814;6.368;2023-05-23T06:45:33;100305.69;;;18.91;60.03
15678;BME280;7939;50.814;6.368;2023-05-23T06:48:02;100301.34;;;18.92;60.03
15678;BME280;7939;50.814;6.368;2023-05-23T06:50:29;100315.28;;;18.88;60.06
15678;BME280;7939;50.814;6.368;2023-05-23T06:52:56;100314.47;;;18.85;60.50
15678;BME280;7939;50.814;6.368;2023-05-23T06:55:24;100311.03;;;18.85;60.49
15678;BME280;7939;50.814;6.368;2023-05-23T06:57:51;100316.19;;;18.86;60.79
15678;BME280;7939;50.814;6.368;2023-05-23T07:00:18;100322.13;;;18.90;61.01
15678;BME280;7939;50.814;6.368;2023-05-23T07:02:45;100324.66;;;18.92;60.21
15678;BME280;7939;50.814;6.368;2023-05-23T07:05:12;100334.06;;;18.96;60.96
15678;BME280;7939;50.814;6.368;2023-05-23T07:07:39;100329.84;;;18.92;60.87
15678;BME280;7939;50.814;6.368;2023-05-23T07:10:07;100325.44;;;18.95;60.30
15678;BME280;7939;50.814;6.368;2023-05-23T07:12:35;100332.34;;;18.96;60.28
15678;BME280;7939;50.814;6.368;2023-05-23T07:15:01;100332.44;;;18.92;60.19
15678;BME280;7939;50.814;6.368;2023-05-23T07:17:28;100335.75;;;18.97;60.66
15678;BME280;7939;50.814;6.368;2023-05-23T07:19:55;100333.19;;;18.97;60.27
15678;BME280;7939;50.814;6.368;2023-05-23T07:22:22;100331.38;;;19.00;60.72
15678;BME280;7939;50.814;6.368;2023-05-23T07:24:49;100332.19;;;19.02;60.69
15678;BME280;7939;50.814;6.368;2023-05-23T07:27:15;100336.50;;;19.02;60.72
15678;BME280;7939;50.814;6.368;2023-05-23T07:29:43;100339.91;;;19.04;60.22
15678;BME280;7939;50.814;6.368;2023-05-23T07:32:10;100339.03;;;19.05;60.52
15678;BME280;7939;50.814;6.368;2023-05-23T07:34:36;100338.16;;;19.04;60.45
15678;BME280;7939;50.814;6.368;2023-05-23T07:37:03;100340.72;;;19.06;60.62
15678;BME280;7939;50.814;6.368;2023-05-23T07:39:29;100335.56;;;19.06;60.60
15678;BME280;7939;50.814;6.368;2023-05-23T07:41:56;100334.66;;;19.07;60.46
15678;BME280;7939;50.814;6.368;2023-05-23T07:44:23;100339.88;;;19.05;60.56
15678;BME280;7939;50.814;6.368;2023-05-23T07:46:51;100349.41;;;19.03;60.51
15678;BME280;7939;50.814;6.368;2023-05-23T07:49:17;100348.69;;;18.98;60.74
15678;BME280;7939;50.814;6.368;2023-05-23T07:51:45;100349.66;;;18.94;60.51
15678;BME280;7939;50.814;6.368;2023-05-23T07:54:12;100352.28;;;18.93;60.18
15678;BME280;7939;50.814;6.368;2023-05-23T07:56:39;100346.22;;;18.94;60.27
15678;BME280;7939;50.814;6.368;2023-05-23T07:59:06;100352.31;;;18.91;60.90
15678;BME280;7939;50.814;6.368;2023-05-23T08:01:33;100361.03;;;18.89;60.67
15678;BME280;7939;50.814;6.368;2023-05-23T08:04:02;100356.78;;;18.84;60.68
15678;BME280;7939;50.814;6.368;2023-05-23T08:06:29;100354.34;;;18.78;61.11
15678;BME280;7939;50.814;6.368;2023-05-23T08:08:56;100356.94;;;18.80;60.94
15678;BME280;7939;50.814;6.368;2023-05-23T08:11:22;100359.66;;;18.74;61.04
15678;BME280;7939;50.814;6.368;2023-05-23T08:13:49;100356.19;;;18.75;61.79
15678;BME280;7939;50.814;6.368;2023-05-23T08:16:16;100363.13;;;18.73;61.17
15678;BME280;7939;50.814;6.368;2023-05-23T08:18:42;100365.75;;;18.71;61.43
15678;BME280;7939;50.814;6.368;2023-05-23T08:21:10;100364.94;;;18.69;61.86
15678;BME280;7939;50.814;6.368;2023-05-23T08:23:37;100373.53;;;18.71;61.57
15678;BME280;7939;50.814;6.368;2023-05-23T08:26:04;100374.38;;;18.72;61.89
15678;BME280;7939;50.814;6.368;2023-05-23T08:28:32;100378.94;;;18.59;62.14
15678;BME280;7939;50.814;6.368;2023-05-23T08:30:59;100381.41;;;18.65;62.02
15678;BME280;7939;50.814;6.368;2023-05-23T08:33:26;100382.38;;;18.61;61.82
15678;BME280;7939;50.814;6.368;2023-05-23T08:35:52;100388.34;;;18.63;62.01
15678;BME280;7939;50.814;6.368;2023-05-23T08:38:20;100385.03;;;18.58;62.45
15678;BME280;7939;50.814;6.368;2023-05-23T08:40:49;100384.16;;;18.57;62.49
15678;BME280;7939;50.814;6.368;2023-05-23T08:43:17;100390.38;;;18.50;62.89
15678;BME280;7939;50.814;6.368;2023-05-23T08:45:44;100384.28;;;18.53;62.63
15678;BME280;7939;50.814;6.368;2023-05-23T08:48:12;100391.22;;;18.51;62.77
15678;BME280;7939;50.814;6.368;2023-05-23T08:50:42;100394.66;;;18.51;62.17
15678;BME280;7939;50.814;6.368;2023-05-23T08:53:14;100395.47;;;18.53;62.77
15678;BME280;7939;50.814;6.368;2023-05-23T08:55:46;100392.94;;;18.52;62.21
15678;BME280;7939;50.814;6.368;2023-05-23T08:58:14;100403.38;;;18.49;62.58
15678;BME280;7939;50.814;6.368;2023-05-23T09:00:41;100403.41;;;18.46;62.59
15678;BME280;7939;50.814;6.368;2023-05-23T09:03:09;100407.69;;;18.47;62.65
15678;BME280;7939;50.814;6.368;2023-05-23T09:05:36;100407.78;;;18.44;62.53
15678;BME280;7939;50.814;6.368;2023-05-23T09:08:03;100416.44;;;18.43;62.23
15678;BME280;7939;50.814;6.368;2023-05-23T09:10:30;100421.53;;;18.46;62.18
15678;BME280;7939;50.814;6.368;2023-05-23T09:12:58;100414.69;;;18.43;61.71
15678;BME280;7939;50.814;6.368;2023-05-23T09:15:25;100414.75;;;18.40;62.51
15678;BME280;7939;50.814;6.368;2023-05-23T09:17:58;100426.75;;;18.44;61.80
15678;BME280;7939;50.814;6.368;2023-05-23T09:20:26;100431.94;;;18.44;62.44
15678;BME280;7939;50.814;6.368;2023-05-23T09:22:53;100424.34;;;18.35;61.65
15678;BME280;7939;50.814;6.368;2023-05-23T09:25:20;100427.69;;;18.42;61.75
15678;BME280;7939;50.814;6.368;2023-05-23T09:27:47;100427.72;;;18.39;61.72
15678;BME280;7939;50.814;6.368;2023-05-23T09:30:16;100432.91;;;18.39;61.86
15678;BME280;7939;50.814;6.368;2023-05-23T09:32:56;100443.31;;;18.37;61.47
15678;BME280;7939;50.814;6.368;2023-05-23T09:35:23;100438.97;;;18.38;61.78
15678;BME280;7939;50.814;6.368;2023-05-23T09:37:50;100438.03;;;18.42;61.40
15678;BME280;7939;50.814;6.368;2023-05-23T09:40:20;100440.28;;;18.15;62.31
15678;BME280;7939;50.814;6.368;2023-05-23T09:42:47;100440.13;;;18.24;61.69
15678;BME280;7939;50.814;6.368;2023-05-23T09:45:16;100440.97;;;18.25;61.08
15678;BME280;7939;50.814;6.368;2023-05-23T09:47:48;100435.44;;;18.42;61.74
15678;BME280;7939;50.814;6.368;2023-05-23T09:50:16;100442.81;;;18.58;60.82
15678;BME280;7939;50.814;6.368;2023-05-23T09:52:42;100442.06;;;18.55;60.99
15678;BME280;7939;50.814;6.368;2023-05-23T09:55:10;100443.56;;;18.64;60.62
15678;BME280;7939;50.814;6.368;2023-05-23T09:57:40;100442.91;;;18.54;60.28
15678;BME280;7939;50.814;6.368;2023-05-23T10:00:08;100443.66;;;18.60;60.84
15678;BME280;7939;50.814;6.368;2023-05-23T10:02:53;100441.53;;;18.39;59.96
15678;BME280;7939;50.814;6.368;2023-05-23T10:05:29;100448.09;;;18.54;60.18
15678;BME280;7939;50.814;6.368;2023-05-23T10:08:00;100457.59;;;18.53;59.86
15678;BME280;7939;50.814;6.368;2023-05-23T10:10:30;100452.38;;;18.56;60.41
15678;BME280;7939;50.814;6.368;2023-05-23T10:12:58;100457.38;;;18.64;59.83
15678;BME280;7939;50.814;6.368;2023-05-23T10:15:29;100456.22;;;18.77;58.95
15678;BME280;7939;50.814;6.368;2023-05-23T10:18:08;100452.47;;;18.91;59.46
15678;BME280;7939;50.814;6.368;2023-05-23T10:20:39;100454.34;;;18.84;58.73
15678;BME280;7939;50.814;6.368;2023-05-23T10:23:07;100460.25;;;18.91;58.72
15678;BME280;7939;50.814;6.368;2023-05-23T10:25:34;100460.09;;;18.97;58.73
15678;BME280;7939;50.814;6.368;2023-05-23T10:28:02;100452.50;;;18.89;58.44
15678;BME280;7939;50.814;6.368;2023-05-23T10:30:29;100447.84;;;19.03;57.99
15678;BME280;7939;50.814;6.368;2023-05-23T10:32:56;100451.13;;;19.11;58.23
15678;BME280;7939;50.814;6.368;2023-05-23T10:35:33;100457.38;;;19.03;57.27
15678;BME280;7939;50.814;6.368;2023-05-23T10:38:07;100450.28;;;19.09;57.47
15678;BME280;7939;50.814;6.368;2023-05-23T10:40:45;100461.66;;;19.04;56.56
15678;BME280;7939;50.814;6.368;2023-05-23T10:43:21;100459.84;;;19.07;56.51
15678;BME280;7939;50.814;6.368;2023-05-23T10:45:51;100467.03;;;18.96;56.38
15678;BME280;7939;50.814;6.368;2023-05-23T10:48:21;100468.56;;;19.03;56.87
15678;BME280;7939;50.814;6.368;2023-05-23T10:51:03;100476.34;;;19.03;55.88
15678;BME280;7939;50.814;6.368;2023-05-23T10:53:31;100458.16;;;19.06;56.52
15678;BME280;7939;50.814;6.368;2023-05-23T10:55:59;100463.88;;;18.83;55.12
15678;BME280;7939;50.814;6.368;2023-05-23T10:58:28;100474.97;;;18.89;55.97
15678;BME280;7939;50.814;6.368;2023-05-23T11:01:00;100466.78;;;19.07;56.33
15678;BME280;7939;50.814;6.368;2023-05-23T11:03:31;100467.34;;;19.20;55.83
15678;BME280;7939;50.814;6.368;2023-05-23T11:06:01;100468.13;;;19.22;54.95
15678;BME280;7939;50.814;6.368;2023-05-23T11:08:36;100460.00;;;19.35;55.45
15678;BME280;7939;50.814;6.368;2023-05-23T11:11:03;100463.44;;;19.37;55.25
15678;BME280;7939;50.814;6.368;2023-05-23T11:13:58;100458.13;;;19.42;56.10
15678;BME280;7939;50.814;6.368;2023-05-23T11:16:29;100464.03;;;19.47;55.43
15678;BME280;7939;50.814;6.368;2023-05-23T11:19:21;100459.53;;;19.54;54.75
15678;BME280;7939;50.814;6.368;2023-05-23T11:21:53;100452.78;;;19.48;53.83
15678;BME280;7939;50.814;6.368;2023-05-23T11:24:21;100462.34;;;19.46;53.12
15678;BME280;7939;50.814;6.368;2023-05-23T11:26:51;100468.16;;;19.54;53.98
15678;BME280;7939;50.814;6.368;2023-05-23T11:29:18;100476.94;;;19.50;52.74
15678;BME280;7939;50.814;6.368;2023-05-23T11:31:45;100471.75;;;19.50;53.56
15678;BME280;7939;50.814;6.368;2023-05-23T11:34:12;100469.97;;;19.52;54.38
15678;BME280;7939;50.814;6.368;2023-05-23T11:36:39;100472.56;;;19.52;53.64
15678;BME280;7939;50.814;6.368;2023-05-23T11:39:07;100473.34;;;19.56;53.31
15678;BME280;7939;50.814;6.368;2023-05-23T11:41:34;100484.50;;;19.59;53.77
15678;BME280;7939;50.814;6.368;2023-05-23T11:44:09;100475.34;;;19.45;52.61
15678;BME280;7939;50.814;6.368;2023-05-23T11:46:36;100472.50;;;19.54;53.72
15678;BME280;7939;50.814;6.368;2023-05-23T11:49:09;100465.44;;;19.60;53.89
15678;BME280;7939;50.814;6.368;2023-05-23T11:51:36;100468.03;;;19.60;53.90
15678;BME280;7939;50.814;6.368;2023-05-23T11:54:03;100466.28;;;19.62;53.68
15678;BME280;7939;50.814;6.368;2023-05-23T11:56:38;100463.59;;;19.65;54.27
15678;BME280;7939;50.814;6.368;2023-05-23T11:59:04;100472.97;;;19.71;54.66
15678;BME280;7939;50.814;6.368;2023-05-23T12:01:31;100465.97;;;19.73;54.03
15678;BME280;7939;50.814;6.368;2023-05-23T12:03:58;100468.03;;;19.60;53.41
15678;BME280;7939;50.814;6.368;2023-05-23T12:06:25;100466.19;;;19.65;52.86
15678;BME280;7939;50.814;6.368;2023-05-23T12:08:52;100479.31;;;19.59;53.30
15678;BME280;7939;50.814;6.368;2023-05-23T12:11:18;100480.16;;;19.61;53.34
15678;BME280;7939;50.814;6.368;2023-05-23T12:13:48;100477.47;;;19.64;53.81
15678;BME280;7939;50.814;6.368;2023-05-23T12:16:14;100478.31;;;19.65;52.83
15678;BME280;7939;50.814;6.368;2023-05-23T12:18:41;100468.84;;;19.64;53.34
15678;BME280;7939;50.814;6.368;2023-05-23T12:21:08;100473.13;;;19.65;53.33
15678;BME280;7939;50.814;6.368;2023-05-23T12:23:35;100476.66;;;19.62;53.47
15678;BME280;7939;50.814;6.368;2023-05-23T12:26:03;100468.03;;;19.62;52.96
15678;BME280;7939;50.814;6.368;2023-05-23T12:28:35;100468.88;;;19.62;53.29
15678;BME280;7939;50.814;6.368;2023-05-23T12:31:09;100472.38;;;19.61;53.47
15678;BME280;7939;50.814;6.368;2023-05-23T12:33:39;100479.31;;;19.59;53.27
15678;BME280;7939;50.814;6.368;2023-05-23T12:36:08;100479.25;;;19.61;53.63
15678;BME280;7939;50.814;6.368;2023-05-23T12:38:35;100470.06;;;19.49;52.80
15678;BME280;7939;50.814;6.368;2023-05-23T12:41:09;100474.25;;;19.53;53.16
15678;BME280;7939;50.814;6.368;2023-05-23T12:43:37;100476.00;;;19.53;52.95
15678;BME280;7939;50.814;6.368;2023-05-23T12:46:04;100473.41;;;19.53;52.86
15678;BME280;7939;50.814;6.368;2023-05-23T12:48:32;100471.66;;;19.55;52.91
15678;BME280;7939;50.814;6.368;2023-05-23T12:50:59;100469.91;;;19.55;52.58
15678;BME280;7939;50.814;6.368;2023-05-23T12:53:28;100468.22;;;19.53;52.51
15678;BME280;7939;50.814;6.368;2023-05-23T12:55:54;100476.78;;;19.56;52.21
15678;BME280;7939;50.814;6.368;2023-05-23T12:58:21;100473.44;;;19.51;51.76
15678;BME280;7939;50.814;6.368;2023-05-23T13:00:47;100474.06;;;19.62;53.01
15678;BME280;7939;50.814;6.368;2023-05-23T13:03:14;100462.06;;;19.57;52.13
15678;BME280;7939;50.814;6.368;2023-05-23T13:05:42;100472.50;;;19.55;51.49